sensor_id;sensor_type;location;lat;lon;timestamp;P1;P2;P0
67376;PMS7003;54261;46.086;6.588;2023-06-10T00:02:39;37.00;25.67;12.00
67376;PMS7003;54261;46.086;6.588;2023-06-10T00:07:41;9.00;9.00;7.67
67376;PMS7003;54261;46.086;6.588;2023-06-10T00:12:43;10.67;9.33;7.33
67376;PMS7003;54261;46.086;6.588;2023-06-10T00:17:45;13.00;11.00;9.33
67376;PMS7003;54261;46.086;6.588;2023-06-10T00:22:47;12.00;11.67;8.67
67376;PMS7003;54261;46.086;6.588;2023-06-10T00:27:50;12.67;12.67;10.00
67376;PMS7003;54261;46.086;6.588;2023-06-10T00:32:52;12.00;12.00;10.00
67376;PMS7003;54261;46.086;6.588;2023-06-10T00:37:54;12.33;11.00;9.00
67376;PMS7003;54261;46.086;6.588;2023-06-10T00:42:56;11.00;10.67;9.00
67376;PMS7003;54261;46.086;6.588;2023-06-10T00:47:58;15.00;15.00;12.00
67376;PMS7003;54261;46.086;6.588;2023-06-10T00:53:01;13.33;13.33;10.00
67376;PMS7003;54261;46.086;6.588;2023-06-10T00:58:04;13.67;11.00;9.33
67376;PMS7003;54261;46.086;6.588;2023-06-10T01:03:06;12.67;12.67;10.67
67376;PMS7003;54261;46.086;6.588;2023-06-10T01:08:20;14.00;13.00;9.33
67376;PMS7003;54261;46.086;6.588;2023-06-10T01:13:30;11.00;11.00;9.00
67376;PMS7003;54261;46.086;6.588;2023-06-10T01:18:34;15.00;15.00;11.00
67376;PMS7003;54261;46.086;6.588;2023-06-10T01:23:35;14.33;14.33;10.00
67376;PMS7003;54261;46.086;6.588;2023-06-10T01:28:45;17.00;16.67;12.00
67376;PMS7003;54261;46.086;6.588;2023-06-10T01:33:52;17.00;15.00;12.67
67376;PMS7003;54261;46.086;6.588;2023-06-10T01:38:54;13.67;13.00;10.67
67376;PMS7003;54261;46.086;6.588;2023-06-10T01:43:57;14.00;14.00;11.00
67376;PMS7003;54261;46.086;6.588;2023-06-10T01:48:59;11.00;11.00;10.00
67376;PMS7003;54261;46.086;6.588;2023-06-10T01:54:01;12.33;12.00;10.00
67376;PMS7003;54261;46.086;6.588;2023-06-10T01:59:03;13.33;13.33;10.00
67376;PMS7003;54261;46.086;6.588;2023-06-10T02:04:05;11.00;11.00;8.33
67376;PMS7003;54261;46.086;6.588;2023-06-10T02:09:07;15.00;13.00;9.50
67376;PMS7003;54261;46.086;6.588;2023-06-10T02:14:09;12.00;12.00;9.00
67376;PMS7003;54261;46.086;6.588;2023-06-10T02:19:11;11.33;11.33;9.00
67376;PMS7003;54261;46.086;6.588;2023-06-10T02:24:13;13.00;11.00;9.00
67376;PMS7003;54261;46.086;6.588;2023-06-10T02:29:15;10.67;10.00;7.67
67376;PMS7003;54261;46.086;6.588;2023-06-10T02:34:17;14.67;12.00;9.00
67376;PMS7003;54261;46.086;6.588;2023-06-10T02:39:21;9.00;8.67;7.00
67376;PMS7003;54261;46.086;6.588;2023-06-10T02:44:24;9.67;9.00;7.67
67376;PMS7003;54261;46.086;6.588;2023-06-10T02:49:26;10.67;10.67;7.00
67376;PMS7003;54261;46.086;6.588;2023-06-10T02:54:32;5.67;5.33;4.33
67376;PMS7003;54261;46.086;6.588;2023-06-10T02:59:35;8.67;8.67;8.00
67376;PMS7003;54261;46.086;6.588;2023-06-10T03:04:37;9.00;8.00;6.67
67376;PMS7003;54261;46.086;6.588;2023-06-10T03:09:45;8.67;8.00;6.67
67376;PMS7003;54261;46.086;6.588;2023-06-10T03:14:48;9.67;9.67;7.33
67376;PMS7003;54261;46.086;6.588;2023-06-10T03:19:51;9.33;8.33;6.67
67376;PMS7003;54261;46.086;6.588;2023-06-10T03:24:54;10.67;9.67;7.33
67376;PMS7003;54261;46.086;6.588;2023-06-10T03:29:58;9.33;7.67;6.33
67376;PMS7003;54261;46.086;6.588;2023-06-10T03:35:00;10.00;9.00;7.00
67376;PMS7003;54261;46.086;6.588;2023-06-10T03:40:04;11.00;9.67;7.67
67376;PMS7003;54261;46.086;6.588;2023-06-10T03:45:09;7.00;7.00;6.33
67376;PMS7003;54261;46.086;6.588;2023-06-10T03:50:12;7.00;6.67;5.67
67376;PMS7003;54261;46.086;6.588;2023-06-10T03:55:16;9.67;9.00;7.00
67376;PMS7003;54261;46.086;6.588;2023-06-10T04:00:20;7.67;7.67;6.67
67376;PMS7003;54261;46.086;6.588;2023-06-10T04:05:23;10.00;10.00;8.00
67376;PMS7003;54261;46.086;6.588;2023-06-10T04:10:26;9.00;9.00;8.33
67376;PMS7003;54261;46.086;6.588;2023-06-10T04:15:29;10.00;8.67;7.33
67376;PMS7003;54261;46.086;6.588;2023-06-10T04:20:38;10.00;10.00;8.33
67376;PMS7003;54261;46.086;6.588;2023-06-10T04:25:40;14.00;12.33;9.33
67376;PMS7003;54261;46.086;6.588;2023-06-10T04:30:43;11.00;10.00;7.33
67376;PMS7003;54261;46.086;6.588;2023-06-10T04:35:46;11.00;11.00;9.00
67376;PMS7003;54261;46.086;6.588;2023-06-10T04:40:50;10.00;10.00;7.33
67376;PMS7003;54261;46.086;6.588;2023-06-10T04:45:54;9.33;8.67;7.00
67376;PMS7003;54261;46.086;6.588;2023-06-10T04:50:58;9.33;9.33;8.33
67376;PMS7003;54261;46.086;6.588;2023-06-10T04:56:00;10.67;10.67;8.67
67376;PMS7003;54261;46.086;6.588;2023-06-10T05:01:02;10.67;10.67;8.67
67376;PMS7003;54261;46.086;6.588;2023-06-10T05:06:04;12.00;11.00;9.33
67376;PMS7003;54261;46.086;6.588;2023-06-10T05:11:06;12.33;12.33;10.00
67376;PMS7003;54261;46.086;6.588;2023-06-10T05:16:08;9.00;9.00;8.00
67376;PMS7003;54261;46.086;6.588;2023-06-10T05:21:10;11.33;11.33;8.67
67376;PMS7003;54261;46.086;6.588;2023-06-10T05:26:13;11.33;10.00;9.00
67376;PMS7003;54261;46.086;6.588;2023-06-10T05:31:15;9.67;9.67;8.67
67376;PMS7003;54261;46.086;6.588;2023-06-10T05:36:17;11.33;10.33;8.00
67376;PMS7003;54261;46.086;6.588;2023-06-10T05:41:19;11.00;11.00;9.33
67376;PMS7003;54261;46.086;6.588;2023-06-10T05:46:21;9.00;9.00;6.00
67376;PMS7003;54261;46.086;6.588;2023-06-10T05:51:23;12.00;12.00;10.00
67376;PMS7003;54261;46.086;6.588;2023-06-10T05:56:25;10.00;10.00;8.00
67376;PMS7003;54261;46.086;6.588;2023-06-10T06:01:27;12.67;11.67;10.33
67376;PMS7003;54261;46.086;6.588;2023-06-10T06:06:29;12.67;12.67;9.33
67376;PMS7003;54261;46.086;6.588;2023-06-10T06:11:31;11.00;10.00;8.00
67376;PMS7003;54261;46.086;6.588;2023-06-10T06:16:32;11.67;11.67;9.00
67376;PMS7003;54261;46.086;6.588;2023-06-10T06:21:34;9.33;9.00;7.33
67376;PMS7003;54261;46.086;6.588;2023-06-10T06:26:36;9.67;8.33;7.00
67376;PMS7003;54261;46.086;6.588;2023-06-10T06:31:38;10.00;10.00;8.33
67376;PMS7003;54261;46.086;6.588;2023-06-10T06:36:40;13.00;13.00;9.00
67376;PMS7003;54261;46.086;6.588;2023-06-10T06:41:42;57.00;35.00;14.75
67376;PMS7003;54261;46.086;6.588;2023-06-10T06:46:44;29.67;22.67;10.67
67376;PMS7003;54261;46.086;6.588;2023-06-10T06:51:45;48.67;31.00;17.00
67376;PMS7003;54261;46.086;6.588;2023-06-10T06:56:47;30.00;25.67;17.00
67376;PMS7003;54261;46.086;6.588;2023-06-10T07:01:49;25.00;20.00;15.33
67376;PMS7003;54261;46.086;6.588;2023-06-10T07:06:51;31.00;26.25;17.25
67376;PMS7003;54261;46.086;6.588;2023-06-10T07:11:53;27.33;23.67;15.00
67376;PMS7003;54261;46.086;6.588;2023-06-10T07:16:55;24.00;24.00;18.00
67376;PMS7003;54261;46.086;6.588;2023-06-10T07:21:57;22.33;22.33;15.33
67376;PMS7003;54261;46.086;6.588;2023-06-10T07:26:59;24.00;22.67;14.33
67376;PMS7003;54261;46.086;6.588;2023-06-10T07:32:01;23.00;22.33;16.00
67376;PMS7003;54261;46.086;6.588;2023-06-10T07:37:04;21.33;21.33;15.00
67376;PMS7003;54261;46.086;6.588;2023-06-10T07:42:06;22.00;22.00;15.33
67376;PMS7003;54261;46.086;6.588;2023-06-10T07:47:08;13.33;12.33;8.33
67376;PMS7003;54261;46.086;6.588;2023-06-10T07:52:10;14.00;14.00;11.00
67376;PMS7003;54261;46.086;6.588;2023-06-10T07:57:12;13.67;13.67;9.67
67376;PMS7003;54261;46.086;6.588;2023-06-10T08:02:14;15.00;15.00;12.00
67376;PMS7003;54261;46.086;6.588;2023-06-10T08:07:16;13.67;13.67;11.00
67376;PMS7003;54261;46.086;6.588;2023-06-10T08:12:19;16.33;15.00;12.67
67376;PMS7003;54261;46.086;6.588;2023-06-10T08:17:21;16.00;15.33;11.33
67376;PMS7003;54261;46.086;6.588;2023-06-10T08:22:23;16.00;14.67;12.33
67376;PMS7003;54261;46.086;6.588;2023-06-10T08:27:25;11.67;11.67;9.33
67376;PMS7003;54261;46.086;6.588;2023-06-10T08:32:27;12.00;12.00;8.00
67376;PMS7003;54261;46.086;6.588;2023-06-10T08:37:29;11.00;8.67;8.00
67376;PMS7003;54261;46.086;6.588;2023-06-10T08:47:42;7.00;6.00;5.00
67376;PMS7003;54261;46.086;6.588;2023-06-10T08:52:50;7.00;7.00;6.33
67376;PMS7003;54261;46.086;6.588;2023-06-10T08:57:55;10.67;10.67;9.00
67376;PMS7003;54261;46.086;6.588;2023-06-10T09:02:58;11.33;10.33;7.00
67376;PMS7003;54261;46.086;6.588;2023-06-10T09:08:05;14.00;13.00;9.33
67376;PMS7003;54261;46.086;6.588;2023-06-10T09:13:08;13.00;13.00;9.00
67376;PMS7003;54261;46.086;6.588;2023-06-10T09:18:10;10.00;9.67;7.33
67376;PMS7003;54261;46.086;6.588;2023-06-10T09:23:13;9.33;9.33;7.67
67376;PMS7003;54261;46.086;6.588;2023-06-10T09:28:16;9.00;9.00;8.00
67376;PMS7003;54261;46.086;6.588;2023-06-10T09:33:23;7.00;7.00;5.00
67376;PMS7003;54261;46.086;6.588;2023-06-10T09:38:35;7.00;7.00;5.67
67376;PMS7003;54261;46.086;6.588;2023-06-10T09:43:42;6.33;6.00;4.00
67376;PMS7003;54261;46.086;6.588;2023-06-10T09:48:46;6.67;6.67;5.33
67376;PMS7003;54261;46.086;6.588;2023-06-10T09:53:50;4.67;4.67;3.67
67376;PMS7003;54261;46.086;6.588;2023-06-10T09:58:52;4.33;4.00;2.67
67376;PMS7003;54261;46.086;6.588;2023-06-10T10:03:56;3.67;3.67;3.00
67376;PMS7003;54261;46.086;6.588;2023-06-10T10:08:58;3.67;3.33;3.33
67376;PMS7003;54261;46.086;6.588;2023-06-10T10:14:00;4.00;3.00;3.00
67376;PMS7003;54261;46.086;6.588;2023-06-10T10:19:12;3.00;3.00;3.00
67376;PMS7003;54261;46.086;6.588;2023-06-10T10:24:27;2.67;2.67;2.00
67376;PMS7003;54261;46.086;6.588;2023-06-10T10:29:41;4.33;4.00;3.33
67376;PMS7003;54261;46.086;6.588;2023-06-10T10:39:55;3.00;3.00;1.67
67376;PMS7003;54261;46.086;6.588;2023-06-10T10:44:58;3.00;3.00;3.00
67376;PMS7003;54261;46.086;6.588;2023-06-10T10:50:00;3.00;3.00;2.33
67376;PMS7003;54261;46.086;6.588;2023-06-10T10:55:03;3.00;3.00;2.67
67376;PMS7003;54261;46.086;6.588;2023-06-10T11:00:14;4.00;4.00;4.00
67376;PMS7003;54261;46.086;6.588;2023-06-10T11:10:39;4.00;4.00;3.00
67376;PMS7003;54261;46.086;6.588;2023-06-10T11:15:46;4.00;4.00;3.00
67376;PMS7003;54261;46.086;6.588;2023-06-10T11:25:51;5.00;5.00;4.00
67376;PMS7003;54261;46.086;6.588;2023-06-10T11:30:59;4.33;4.33;4.00
67376;PMS7003;54261;46.086;6.588;2023-06-10T11:36:01;5.00;5.00;4.00
67376;PMS7003;54261;46.086;6.588;2023-06-10T11:41:07;3.67;3.67;3.33
67376;PMS7003;54261;46.086;6.588;2023-06-10T11:46:13;4.33;4.33;4.00
67376;PMS7003;54261;46.086;6.588;2023-06-10T11:51:16;3.67;3.67;2.00
67376;PMS7003;54261;46.086;6.588;2023-06-10T12:01:30;4.67;4.33;3.00
67376;PMS7003;54261;46.086;6.588;2023-06-10T12:06:43;5.33;5.33;4.00
67376;PMS7003;54261;46.086;6.588;2023-06-10T12:11:46;4.00;4.00;3.33
67376;PMS7003;54261;46.086;6.588;2023-06-10T12:16:51;3.33;3.33;2.67
67376;PMS7003;54261;46.086;6.588;2023-06-10T12:21:53;3.33;3.33;2.67
67376;PMS7003;54261;46.086;6.588;2023-06-10T12:26:55;3.00;3.00;3.00
67376;PMS7003;54261;46.086;6.588;2023-06-10T12:32:00;2.00;2.00;1.00
67376;PMS7003;54261;46.086;6.588;2023-06-10T12:37:05;1.67;1.67;1.67
67376;PMS7003;54261;46.086;6.588;2023-06-10T12:42:14;3.67;3.00;2.00
67376;PMS7003;54261;46.086;6.588;2023-06-10T12:47:16;3.33;3.00;2.33
67376;PMS7003;54261;46.086;6.588;2023-06-10T12:52:18;2.67;2.67;2.00
67376;PMS7003;54261;46.086;6.588;2023-06-10T12:57:23;1.67;1.67;1.67
67376;PMS7003;54261;46.086;6.588;2023-06-10T13:02:25;3.00;3.00;1.00
67376;PMS7003;54261;46.086;6.588;2023-06-10T13:07:26;3.00;3.00;2.00
67376;PMS7003;54261;46.086;6.588;2023-06-10T13:12:28;3.00;3.00;2.67
67376;PMS7003;54261;46.086;6.588;2023-06-10T13:17:47;2.33;1.67;1.00
67376;PMS7003;54261;46.086;6.588;2023-06-10T13:22:51;1.33;1.33;1.00
67376;PMS7003;54261;46.086;6.588;2023-06-10T13:27:53;1.00;1.00;1.00
67376;PMS7003;54261;46.086;6.588;2023-06-10T13:32:56;1.00;1.00;0.67
67376;PMS7003;54261;46.086;6.588;2023-06-10T13:37:57;2.00;2.00;1.33
67376;PMS7003;54261;46.086;6.588;2023-06-10T13:42:59;1.00;1.00;1.00
67376;PMS7003;54261;46.086;6.588;2023-06-10T13:48:02;0.25;0.25;0.25
67376;PMS7003;54261;46.086;6.588;2023-06-10T13:53:06;0.25;0.25;0.00
67376;PMS7003;54261;46.086;6.588;2023-06-10T13:58:08;0.50;0.50;0.25
67376;PMS7003;54261;46.086;6.588;2023-06-10T14:03:10;1.00;1.00;1.00
67376;PMS7003;54261;46.086;6.588;2023-06-10T14:08:14;1.00;1.00;1.00
67376;PMS7003;54261;46.086;6.588;2023-06-10T14:13:16;2.00;0.00;0.00
67376;PMS7003;54261;46.086;6.588;2023-06-10T14:18:19;1.50;1.00;1.00
67376;PMS7003;54261;46.086;6.588;2023-06-10T14:23:21;0.33;0.33;0.33
67376;PMS7003;54261;46.086;6.588;2023-06-10T14:28:23;0.50;0.00;0.00
67376;PMS7003;54261;46.086;6.588;2023-06-10T14:33:25;0.75;0.75;0.25
67376;PMS7003;54261;46.086;6.588;2023-06-10T14:38:27;0.00;0.00;0.00
67376;PMS7003;54261;46.086;6.588;2023-06-10T14:43:29;0.67;0.67;0.33
67376;PMS7003;54261;46.086;6.588;2023-06-10T14:48:31;2.00;1.00;1.00
67376;PMS7003;54261;46.086;6.588;2023-06-10T14:53:33;1.00;1.00;1.00
67376;PMS7003;54261;46.086;6.588;2023-06-10T14:58:34;0.25;0.25;0.00
67376;PMS7003;54261;46.086;6.588;2023-06-10T15:03:36;1.33;0.00;0.00
67376;PMS7003;54261;46.086;6.588;2023-06-10T15:08:38;1.00;1.00;0.33
67376;PMS7003;54261;46.086;6.588;2023-06-10T15:13:40;0.50;0.50;0.50
67376;PMS7003;54261;46.086;6.588;2023-06-10T15:18:42;1.50;1.50;0.50
67376;PMS7003;54261;46.086;6.588;2023-06-10T15:23:44;0.00;0.00;0.00
67376;PMS7003;54261;46.086;6.588;2023-06-10T15:28:46;1.00;1.00;1.00
67376;PMS7003;54261;46.086;6.588;2023-06-10T15:33:48;0.00;0.00;0.00
67376;PMS7003;54261;46.086;6.588;2023-06-10T15:38:50;2.00;2.00;1.00
67376;PMS7003;54261;46.086;6.588;2023-06-10T15:43:54;0.00;0.00;0.00
67376;PMS7003;54261;46.086;6.588;2023-06-10T15:48:56;0.00;0.00;0.00
67376;PMS7003;54261;46.086;6.588;2023-06-10T15:53:59;1.00;1.00;0.67
67376;PMS7003;54261;46.086;6.588;2023-06-10T15:59:01;0.00;0.00;0.00
67376;PMS7003;54261;46.086;6.588;2023-06-10T16:04:03;0.00;0.00;0.00
67376;PMS7003;54261;46.086;6.588;2023-06-10T16:09:05;0.00;0.00;0.00
67376;PMS7003;54261;46.086;6.588;2023-06-10T16:14:07;1.00;1.00;0.25
67376;PMS7003;54261;46.086;6.588;2023-06-10T16:19:09;0.25;0.25;0.25
67376;PMS7003;54261;46.086;6.588;2023-06-10T16:24:11;2.33;2.00;2.00
67376;PMS7003;54261;46.086;6.588;2023-06-10T16:29:14;2.00;2.00;2.00
67376;PMS7003;54261;46.086;6.588;2023-06-10T16:34:17;1.33;1.33;1.00
67376;PMS7003;54261;46.086;6.588;2023-06-10T16:39:18;1.33;1.33;1.00
67376;PMS7003;54261;46.086;6.588;2023-06-10T16:44:20;0.25;0.25;0.00
67376;PMS7003;54261;46.086;6.588;2023-06-10T16:49:22;0.25;0.25;0.25
67376;PMS7003;54261;46.086;6.588;2023-06-10T16:54:24;0.25;0.25;0.25
67376;PMS7003;54261;46.086;6.588;2023-06-10T16:59:26;0.50;0.50;0.50
67376;PMS7003;54261;46.086;6.588;2023-06-10T17:04:28;0.25;0.25;0.25
67376;PMS7003;54261;46.086;6.588;2023-06-10T17:09:30;1.75;1.75;1.25
67376;PMS7003;54261;46.086;6.588;2023-06-10T17:14:32;4.00;3.00;2.25
67376;PMS7003;54261;46.086;6.588;2023-06-10T17:19:33;2.25;2.25;1.50
67376;PMS7003;54261;46.086;6.588;2023-06-10T17:24:36;2.00;2.00;2.00
67376;PMS7003;54261;46.086;6.588;2023-06-10T17:29:38;2.25;2.25;2.00
67376;PMS7003;54261;46.086;6.588;2023-06-10T17:34:40;3.25;3.25;2.25
67376;PMS7003;54261;46.086;6.588;2023-06-10T17:39:42;2.00;2.00;2.00
67376;PMS7003;54261;46.086;6.588;2023-06-10T17:44:44;2.00;2.00;2.00
67376;PMS7003;54261;46.086;6.588;2023-06-10T17:49:46;1.25;1.25;1.25
67376;PMS7003;54261;46.086;6.588;2023-06-10T17:54:49;1.25;1.25;1.25
67376;PMS7003;54261;46.086;6.588;2023-06-10T17:59:51;2.00;2.00;2.00
67376;PMS7003;54261;46.086;6.588;2023-06-10T18:04:53;3.75;3.75;3.00
67376;PMS7003;54261;46.086;6.588;2023-06-10T18:09:55;2.25;2.00;1.00
67376;PMS7003;54261;46.086;6.588;2023-06-10T18:14:56;2.75;2.75;2.25
67376;PMS7003;54261;46.086;6.588;2023-06-10T18:19:59;3.75;3.75;3.00
67376;PMS7003;54261;46.086;6.588;2023-06-10T18:25:01;3.00;2.75;2.00
67376;PMS7003;54261;46.086;6.588;2023-06-10T18:30:06;2.00;2.00;2.00
67376;PMS7003;54261;46.086;6.588;2023-06-10T18:35:09;4.25;3.50;2.00
67376;PMS7003;54261;46.086;6.588;2023-06-10T18:40:11;2.00;2.00;2.00
67376;PMS7003;54261;46.086;6.588;2023-06-10T18:45:13;1.75;1.75;0.75
67376;PMS7003;54261;46.086;6.588;2023-06-10T18:50:16;2.75;1.25;1.00
67376;PMS7003;54261;46.086;6.588;2023-06-10T18:55:18;3.00;3.00;2.00
67376;PMS7003;54261;46.086;6.588;2023-06-10T19:00:20;3.00;3.00;3.00
67376;PMS7003;54261;46.086;6.588;2023-06-10T19:05:22;4.00;4.00;4.00
67376;PMS7003;54261;46.086;6.588;2023-06-10T19:10:24;3.00;3.00;3.00
67376;PMS7003;54261;46.086;6.588;2023-06-10T19:15:27;3.00;3.00;3.00
67376;PMS7003;54261;46.086;6.588;2023-06-10T19:20:29;2.00;2.00;1.33
67376;PMS7003;54261;46.086;6.588;2023-06-10T19:25:31;3.33;3.33;2.67
67376;PMS7003;54261;46.086;6.588;2023-06-10T19:30:33;4.33;3.00;1.67
67376;PMS7003;54261;46.086;6.588;2023-06-10T19:35:35;5.67;5.67;3.33
67376;PMS7003;54261;46.086;6.588;2023-06-10T19:40:38;3.67;2.67;2.67
67376;PMS7003;54261;46.086;6.588;2023-06-10T19:45:40;2.67;2.67;2.00
67376;PMS7003;54261;46.086;6.588;2023-06-10T19:50:42;3.67;3.33;2.67
67376;PMS7003;54261;46.086;6.588;2023-06-10T19:55:43;4.33;4.33;4.00
67376;PMS7003;54261;46.086;6.588;2023-06-10T20:00:45;3.33;3.33;2.67
67376;PMS7003;54261;46.086;6.588;2023-06-10T20:05:47;2.67;2.67;2.33
67376;PMS7003;54261;46.086;6.588;2023-06-10T20:10:49;3.33;3.33;2.67
67376;PMS7003;54261;46.086;6.588;2023-06-10T20:15:51;4.00;4.00;3.67
67376;PMS7003;54261;46.086;6.588;2023-06-10T20:20:53;5.33;5.33;4.00
67376;PMS7003;54261;46.086;6.588;2023-06-10T20:25:55;5.33;5.33;4.33
67376;PMS7003;54261;46.086;6.588;2023-06-10T20:31:00;5.33;4.67;4.67
67376;PMS7003;54261;46.086;6.588;2023-06-10T20:36:02;4.33;4.33;3.67
67376;PMS7003;54261;46.086;6.588;2023-06-10T20:41:04;1.00;1.00;0.67
67376;PMS7003;54261;46.086;6.588;2023-06-10T20:46:07;2.67;2.67;2.00
67376;PMS7003;54261;46.086;6.588;2023-06-10T20:51:09;5.33;4.67;4.00
67376;PMS7003;54261;46.086;6.588;2023-06-10T20:56:11;5.33;5.00;3.67
67376;PMS7003;54261;46.086;6.588;2023-06-10T21:01:13;4.00;3.67;3.67
67376;PMS7003;54261;46.086;6.588;2023-06-10T21:06:15;3.00;3.00;2.67
67376;PMS7003;54261;46.086;6.588;2023-06-10T21:11:17;4.00;3.67;3.00
67376;PMS7003;54261;46.086;6.588;2023-06-10T21:16:19;5.00;5.00;3.67
67376;PMS7003;54261;46.086;6.588;2023-06-10T21:21:21;4.67;4.67;3.67
67376;PMS7003;54261;46.086;6.588;2023-06-10T21:26:24;4.33;4.33;3.67
67376;PMS7003;54261;46.086;6.588;2023-06-10T21:31:26;3.00;3.00;3.00
67376;PMS7003;54261;46.086;6.588;2023-06-10T21:36:28;4.33;4.00;3.33
67376;PMS7003;54261;46.086;6.588;2023-06-10T21:41:30;2.33;2.33;2.00
67376;PMS7003;54261;46.086;6.588;2023-06-10T21:46:32;3.33;3.33;2.67
67376;PMS7003;54261;46.086;6.588;2023-06-10T21:51:34;4.00;4.00;4.00
67376;PMS7003;54261;46.086;6.588;2023-06-10T21:56:36;3.00;3.00;2.67
67376;PMS7003;54261;46.086;6.588;2023-06-10T22:01:38;2.00;2.00;2.00
67376;PMS7003;54261;46.086;6.588;2023-06-10T22:06:40;3.33;3.33;2.33
67376;PMS7003;54261;46.086;6.588;2023-06-10T22:11:43;3.00;3.00;2.67
67376;PMS7003;54261;46.086;6.588;2023-06-10T22:16:45;4.00;4.00;3.00
67376;PMS7003;54261;46.086;6.588;2023-06-10T22:21:47;4.00;4.00;3.00
67376;PMS7003;54261;46.086;6.588;2023-06-10T22:26:48;4.00;3.00;2.67
67376;PMS7003;54261;46.086;6.588;2023-06-10T22:31:54;6.67;6.67;5.00
67376;PMS7003;54261;46.086;6.588;2023-06-10T22:36:57;3.00;3.00;2.00
67376;PMS7003;54261;46.086;6.588;2023-06-10T22:41:59;4.00;3.00;2.67
67376;PMS7003;54261;46.086;6.588;2023-06-10T22:47:01;4.00;3.33;3.00
67376;PMS7003;54261;46.086;6.588;2023-06-10T22:52:02;2.67;2.67;2.67
67376;PMS7003;54261;46.086;6.588;2023-06-10T22:57:05;4.33;3.00;3.00
67376;PMS7003;54261;46.086;6.588;2023-06-10T23:02:08;4.00;4.00;3.33
67376;PMS7003;54261;46.086;6.588;2023-06-10T23:07:10;3.00;3.00;2.67
67376;PMS7003;54261;46.086;6.588;2023-06-10T23:12:15;4.67;4.00;3.00
67376;PMS7003;54261;46.086;6.588;2023-06-10T23:17:17;2.33;2.33;2.00
67376;PMS7003;54261;46.086;6.588;2023-06-10T23:22:19;4.00;4.00;3.00
67376;PMS7003;54261;46.086;6.588;2023-06-10T23:27:21;4.00;4.00;3.00
67376;PMS7003;54261;46.086;6.588;2023-06-10T23:32:23;3.33;3.33;2.67
67376;PMS7003;54261;46.086;6.588;2023-06-10T23:37:25;4.00;4.00;4.00
67376;PMS7003;54261;46.086;6.588;2023-06-10T23:42:29;2.67;2.67;2.00
67376;PMS7003;54261;46.086;6.588;2023-06-10T23:47:31;2.67;2.00;2.00
67376;PMS7003;54261;46.086;6.588;2023-06-10T23:52:33;1.67;1.67;1.67
67376;PMS7003;54261;46.086;6.588;2023-06-10T23:57:35;1.67;1.67;1.00
